sensor_id;sensor_type;location;lat;lon;timestamp;P1;durP1;ratioP1;P2;durP2;ratioP2
1428;SDS011;708;51.442;7.016;2022-11-20T00:00:20;27.80;;;21.52;;
1428;SDS011;708;51.442;7.016;2022-11-20T00:02:47;37.67;;;23.55;;
1428;SDS011;708;51.442;7.016;2022-11-20T00:05:14;26.45;;;20.85;;
1428;SDS011;708;51.442;7.016;2022-11-20T00:07:41;25.80;;;19.90;;
1428;SDS011;708;51.442;7.016;2022-11-20T00:10:08;26.83;;;20.38;;
1428;SDS011;708;51.442;7.016;2022-11-20T00:12:36;35.15;;;21.67;;
1428;SDS011;708;51.442;7.016;2022-11-20T00:15:03;28.45;;;21.42;;
1428;SDS011;708;51.442;7.016;2022-11-20T00:17:30;26.20;;;20.00;;
1428;SDS011;708;51.442;7.016;2022-11-20T00:19:57;26.00;;;20.60;;
1428;SDS011;708;51.442;7.016;2022-11-20T00:22:24;27.02;;;21.55;;
1428;SDS011;708;51.442;7.016;2022-11-20T00:24:51;28.02;;;22.88;;
1428;SDS011;708;51.442;7.016;2022-11-20T00:27:18;27.00;;;20.95;;
1428;SDS011;708;51.442;7.016;2022-11-20T00:29:46;28.52;;;22.10;;
1428;SDS011;708;51.442;7.016;2022-11-20T00:32:12;32.42;;;21.73;;
1428;SDS011;708;51.442;7.016;2022-11-20T00:34:39;28.98;;;21.45;;
1428;SDS011;708;51.442;7.016;2022-11-20T00:37:06;27.95;;;20.30;;
1428;SDS011;708;51.442;7.016;2022-11-20T00:39:32;25.80;;;20.70;;
1428;SDS011;708;51.442;7.016;2022-11-20T00:41:59;28.77;;;20.27;;
1428;SDS011;708;51.442;7.016;2022-11-20T00:44:26;27.70;;;19.63;;
1428;SDS011;708;51.442;7.016;2022-11-20T00:46:54;32.22;;;23.08;;
1428;SDS011;708;51.442;7.016;2022-11-20T00:49:21;25.40;;;19.77;;
1428;SDS011;708;51.442;7.016;2022-11-20T00:51:48;31.30;;;21.30;;
1428;SDS011;708;51.442;7.016;2022-11-20T00:54:14;26.67;;;21.40;;
1428;SDS011;708;51.442;7.016;2022-11-20T00:56:41;32.63;;;22.83;;
1428;SDS011;708;51.442;7.016;2022-11-20T00:59:08;30.10;;;21.20;;
1428;SDS011;708;51.442;7.016;2022-11-20T01:01:36;34.20;;;25.05;;
1428;SDS011;708;51.442;7.016;2022-11-20T01:04:04;32.33;;;23.40;;
1428;SDS011;708;51.442;7.016;2022-11-20T01:06:32;31.90;;;23.48;;
1428;SDS011;708;51.442;7.016;2022-11-20T01:09:01;31.20;;;21.55;;
1428;SDS011;708;51.442;7.016;2022-11-20T01:11:30;28.60;;;20.98;;
1428;SDS011;708;51.442;7.016;2022-11-20T01:13:59;24.75;;;21.42;;
1428;SDS011;708;51.442;7.016;2022-11-20T01:16:27;30.35;;;22.55;;
1428;SDS011;708;51.442;7.016;2022-11-20T01:18:57;31.60;;;22.38;;
1428;SDS011;708;51.442;7.016;2022-11-20T01:21:27;28.40;;;22.10;;
1428;SDS011;708;51.442;7.016;2022-11-20T01:23:55;28.20;;;20.95;;
1428;SDS011;708;51.442;7.016;2022-11-20T01:26:23;28.58;;;21.67;;
1428;SDS011;708;51.442;7.016;2022-11-20T01:28:51;30.17;;;24.42;;
1428;SDS011;708;51.442;7.016;2022-11-20T01:31:20;28.67;;;22.00;;
1428;SDS011;708;51.442;7.016;2022-11-20T01:33:49;33.05;;;21.40;;
1428;SDS011;708;51.442;7.016;2022-11-20T01:36:18;35.58;;;22.63;;
1428;SDS011;708;51.442;7.016;2022-11-20T01:38:48;27.55;;;21.85;;
1428;SDS011;708;51.442;7.016;2022-11-20T01:41:17;28.33;;;20.35;;
1428;SDS011;708;51.442;7.016;2022-11-20T01:43:58;28.45;;;21.55;;
1428;SDS011;708;51.442;7.016;2022-11-20T01:46:25;30.65;;;21.02;;
1428;SDS011;708;51.442;7.016;2022-11-20T01:48:53;30.65;;;22.48;;
1428;SDS011;708;51.442;7.016;2022-11-20T01:51:24;27.05;;;21.65;;
1428;SDS011;708;51.442;7.016;2022-11-20T01:53:57;29.08;;;21.65;;
1428;SDS011;708;51.442;7.016;2022-11-20T01:56:27;30.90;;;21.83;;
1428;SDS011;708;51.442;7.016;2022-11-20T01:58:58;29.10;;;22.35;;
1428;SDS011;708;51.442;7.016;2022-11-20T02:01:27;27.80;;;20.60;;
1428;SDS011;708;51.442;7.016;2022-11-20T02:03:54;27.83;;;19.92;;
1428;SDS011;708;51.442;7.016;2022-11-20T02:06:22;26.95;;;18.98;;
1428;SDS011;708;51.442;7.016;2022-11-20T02:08:51;27.52;;;21.23;;
1428;SDS011;708;51.442;7.016;2022-11-20T02:11:20;28.23;;;21.40;;
1428;SDS011;708;51.442;7.016;2022-11-20T02:13:48;29.45;;;21.75;;
1428;SDS011;708;51.442;7.016;2022-11-20T02:16:19;27.90;;;20.48;;
1428;SDS011;708;51.442;7.016;2022-11-20T02:18:49;27.90;;;20.65;;
1428;SDS011;708;51.442;7.016;2022-11-20T02:21:23;28.42;;;20.23;;
1428;SDS011;708;51.442;7.016;2022-11-20T02:23:58;28.45;;;21.92;;
1428;SDS011;708;51.442;7.016;2022-11-20T02:26:31;30.98;;;20.10;;
1428;SDS011;708;51.442;7.016;2022-11-20T02:29:01;26.60;;;20.90;;
1428;SDS011;708;51.442;7.016;2022-11-20T02:31:28;26.45;;;21.33;;
1428;SDS011;708;51.442;7.016;2022-11-20T02:33:59;25.08;;;19.52;;
1428;SDS011;708;51.442;7.016;2022-11-20T02:36:27;27.70;;;20.05;;
1428;SDS011;708;51.442;7.016;2022-11-20T02:38:55;30.52;;;20.70;;
1428;SDS011;708;51.442;7.016;2022-11-20T02:41:29;24.08;;;19.73;;
1428;SDS011;708;51.442;7.016;2022-11-20T02:43:57;25.95;;;20.13;;
1428;SDS011;708;51.442;7.016;2022-11-20T02:46:23;26.73;;;20.10;;
1428;SDS011;708;51.442;7.016;2022-11-20T02:48:50;27.55;;;21.10;;
1428;SDS011;708;51.442;7.016;2022-11-20T02:51:17;29.08;;;20.48;;
1428;SDS011;708;51.442;7.016;2022-11-20T02:53:44;25.20;;;19.20;;
1428;SDS011;708;51.442;7.016;2022-11-20T02:56:11;24.75;;;18.60;;
1428;SDS011;708;51.442;7.016;2022-11-20T02:58:39;26.67;;;19.58;;
1428;SDS011;708;51.442;7.016;2022-11-20T03:01:06;25.88;;;19.52;;
1428;SDS011;708;51.442;7.016;2022-11-20T03:03:33;24.60;;;19.30;;
1428;SDS011;708;51.442;7.016;2022-11-20T03:06:00;27.55;;;21.33;;
1428;SDS011;708;51.442;7.016;2022-11-20T03:08:26;25.13;;;20.27;;
1428;SDS011;708;51.442;7.016;2022-11-20T03:10:53;26.35;;;17.75;;
1428;SDS011;708;51.442;7.016;2022-11-20T03:13:20;27.42;;;18.98;;
1428;SDS011;708;51.442;7.016;2022-11-20T03:15:48;26.83;;;20.20;;
1428;SDS011;708;51.442;7.016;2022-11-20T03:18:15;23.88;;;20.27;;
1428;SDS011;708;51.442;7.016;2022-11-20T03:20:42;22.23;;;18.13;;
1428;SDS011;708;51.442;7.016;2022-11-20T03:23:09;25.67;;;19.40;;
1428;SDS011;708;51.442;7.016;2022-11-20T03:25:35;26.70;;;19.88;;
1428;SDS011;708;51.442;7.016;2022-11-20T03:28:02;27.23;;;20.05;;
1428;SDS011;708;51.442;7.016;2022-11-20T03:30:29;25.88;;;20.17;;
1428;SDS011;708;51.442;7.016;2022-11-20T03:32:57;24.80;;;18.65;;
1428;SDS011;708;51.442;7.016;2022-11-20T03:35:24;24.42;;;17.98;;
1428;SDS011;708;51.442;7.016;2022-11-20T03:37:50;23.27;;;18.17;;
1428;SDS011;708;51.442;7.016;2022-11-20T03:40:17;26.60;;;20.63;;
1428;SDS011;708;51.442;7.016;2022-11-20T03:42:44;25.25;;;19.08;;
1428;SDS011;708;51.442;7.016;2022-11-20T03:45:11;22.65;;;18.48;;
1428;SDS011;708;51.442;7.016;2022-11-20T03:47:38;23.90;;;19.27;;
1428;SDS011;708;51.442;7.016;2022-11-20T03:50:06;24.45;;;19.30;;
1428;SDS011;708;51.442;7.016;2022-11-20T03:52:34;25.48;;;19.25;;
1428;SDS011;708;51.442;7.016;2022-11-20T03:55:00;24.92;;;18.00;;
1428;SDS011;708;51.442;7.016;2022-11-20T03:57:27;27.90;;;19.75;;
1428;SDS011;708;51.442;7.016;2022-11-20T03:59:54;25.52;;;19.52;;
1428;SDS011;708;51.442;7.016;2022-11-20T04:02:21;25.52;;;19.17;;
1428;SDS011;708;51.442;7.016;2022-11-20T04:04:48;28.48;;;19.38;;
1428;SDS011;708;51.442;7.016;2022-11-20T04:07:16;28.98;;;19.63;;
1428;SDS011;708;51.442;7.016;2022-11-20T04:09:42;29.23;;;22.63;;
1428;SDS011;708;51.442;7.016;2022-11-20T04:12:09;30.95;;;22.67;;
1428;SDS011;708;51.442;7.016;2022-11-20T04:14:36;27.02;;;22.13;;
1428;SDS011;708;51.442;7.016;2022-11-20T04:17:03;30.90;;;21.65;;
1428;SDS011;708;51.442;7.016;2022-11-20T04:19:30;26.92;;;20.85;;
1428;SDS011;708;51.442;7.016;2022-11-20T04:21:56;27.70;;;21.92;;
1428;SDS011;708;51.442;7.016;2022-11-20T04:24:25;28.88;;;22.75;;
1428;SDS011;708;51.442;7.016;2022-11-20T04:26:52;28.73;;;21.85;;
1428;SDS011;708;51.442;7.016;2022-11-20T04:29:19;29.45;;;23.15;;
1428;SDS011;708;51.442;7.016;2022-11-20T04:31:46;27.70;;;21.65;;
1428;SDS011;708;51.442;7.016;2022-11-20T04:34:12;30.38;;;22.98;;
1428;SDS011;708;51.442;7.016;2022-11-20T04:36:39;26.15;;;21.70;;
1428;SDS011;708;51.442;7.016;2022-11-20T04:39:11;27.13;;;20.75;;
1428;SDS011;708;51.442;7.016;2022-11-20T04:41:41;26.58;;;20.63;;
1428;SDS011;708;51.442;7.016;2022-11-20T04:44:08;30.85;;;22.15;;
1428;SDS011;708;51.442;7.016;2022-11-20T04:46:35;30.35;;;23.58;;
1428;SDS011;708;51.442;7.016;2022-11-20T04:49:03;25.08;;;19.58;;
1428;SDS011;708;51.442;7.016;2022-11-20T04:51:30;27.48;;;20.85;;
1428;SDS011;708;51.442;7.016;2022-11-20T04:53:57;26.63;;;21.55;;
1428;SDS011;708;51.442;7.016;2022-11-20T04:56:24;29.08;;;21.77;;
1428;SDS011;708;51.442;7.016;2022-11-20T04:58:52;27.48;;;21.42;;
1428;SDS011;708;51.442;7.016;2022-11-20T05:01:19;25.52;;;21.13;;
1428;SDS011;708;51.442;7.016;2022-11-20T05:03:47;27.35;;;20.20;;
1428;SDS011;708;51.442;7.016;2022-11-20T05:06:15;25.13;;;19.58;;
1428;SDS011;708;51.442;7.016;2022-11-20T05:08:44;32.65;;;22.30;;
1428;SDS011;708;51.442;7.016;2022-11-20T05:11:11;28.15;;;20.42;;
1428;SDS011;708;51.442;7.016;2022-11-20T05:13:39;28.85;;;20.45;;
1428;SDS011;708;51.442;7.016;2022-11-20T05:16:08;25.80;;;21.60;;
1428;SDS011;708;51.442;7.016;2022-11-20T05:18:36;24.30;;;20.85;;
1428;SDS011;708;51.442;7.016;2022-11-20T05:21:04;24.80;;;20.38;;
1428;SDS011;708;51.442;7.016;2022-11-20T05:23:31;24.42;;;18.65;;
1428;SDS011;708;51.442;7.016;2022-11-20T05:25:59;25.27;;;19.45;;
1428;SDS011;708;51.442;7.016;2022-11-20T05:28:27;20.77;;;18.20;;
1428;SDS011;708;51.442;7.016;2022-11-20T05:30:55;28.13;;;20.23;;
1428;SDS011;708;51.442;7.016;2022-11-20T05:33:23;23.90;;;20.20;;
1428;SDS011;708;51.442;7.016;2022-11-20T05:35:50;23.15;;;18.90;;
1428;SDS011;708;51.442;7.016;2022-11-20T05:38:16;26.70;;;19.52;;
1428;SDS011;708;51.442;7.016;2022-11-20T05:40:43;23.48;;;18.63;;
1428;SDS011;708;51.442;7.016;2022-11-20T05:43:10;24.90;;;19.45;;
1428;SDS011;708;51.442;7.016;2022-11-20T05:45:37;26.45;;;20.40;;
1428;SDS011;708;51.442;7.016;2022-11-20T05:48:03;24.23;;;20.17;;
1428;SDS011;708;51.442;7.016;2022-11-20T05:50:32;25.55;;;20.23;;
1428;SDS011;708;51.442;7.016;2022-11-20T05:52:58;31.48;;;21.20;;
1428;SDS011;708;51.442;7.016;2022-11-20T05:55:26;27.67;;;21.05;;
1428;SDS011;708;51.442;7.016;2022-11-20T05:57:53;31.00;;;22.67;;
1428;SDS011;708;51.442;7.016;2022-11-20T06:00:20;29.05;;;22.30;;
1428;SDS011;708;51.442;7.016;2022-11-20T06:02:47;27.08;;;20.42;;
1428;SDS011;708;51.442;7.016;2022-11-20T06:05:14;26.08;;;19.63;;
1428;SDS011;708;51.442;7.016;2022-11-20T06:07:43;28.90;;;22.80;;
1428;SDS011;708;51.442;7.016;2022-11-20T06:10:09;33.72;;;21.45;;
1428;SDS011;708;51.442;7.016;2022-11-20T06:12:37;32.60;;;22.38;;
1428;SDS011;708;51.442;7.016;2022-11-20T06:15:04;32.22;;;22.75;;
1428;SDS011;708;51.442;7.016;2022-11-20T06:17:31;30.52;;;22.85;;
1428;SDS011;708;51.442;7.016;2022-11-20T06:19:58;33.60;;;23.73;;
1428;SDS011;708;51.442;7.016;2022-11-20T06:22:26;33.95;;;20.55;;
1428;SDS011;708;51.442;7.016;2022-11-20T06:24:54;31.17;;;21.60;;
1428;SDS011;708;51.442;7.016;2022-11-20T06:27:21;30.25;;;22.10;;
1428;SDS011;708;51.442;7.016;2022-11-20T06:29:48;30.45;;;21.45;;
1428;SDS011;708;51.442;7.016;2022-11-20T06:32:14;36.47;;;23.52;;
1428;SDS011;708;51.442;7.016;2022-11-20T06:34:41;35.65;;;23.08;;
1428;SDS011;708;51.442;7.016;2022-11-20T06:37:08;33.15;;;21.98;;
1428;SDS011;708;51.442;7.016;2022-11-20T06:39:35;35.45;;;23.85;;
1428;SDS011;708;51.442;7.016;2022-11-20T06:42:04;34.30;;;25.17;;
1428;SDS011;708;51.442;7.016;2022-11-20T06:44:30;28.88;;;21.08;;
1428;SDS011;708;51.442;7.016;2022-11-20T06:46:57;35.00;;;23.17;;
1428;SDS011;708;51.442;7.016;2022-11-20T06:49:24;31.15;;;22.27;;
1428;SDS011;708;51.442;7.016;2022-11-20T06:51:52;27.48;;;19.90;;
1428;SDS011;708;51.442;7.016;2022-11-20T06:54:18;32.00;;;22.17;;
1428;SDS011;708;51.442;7.016;2022-11-20T06:56:51;38.40;;;24.13;;
1428;SDS011;708;51.442;7.016;2022-11-20T06:59:19;31.52;;;23.60;;
1428;SDS011;708;51.442;7.016;2022-11-20T07:01:46;34.65;;;23.40;;
1428;SDS011;708;51.442;7.016;2022-11-20T07:04:13;37.08;;;23.85;;
1428;SDS011;708;51.442;7.016;2022-11-20T07:06:39;32.67;;;22.65;;
1428;SDS011;708;51.442;7.016;2022-11-20T07:09:06;30.73;;;22.45;;
1428;SDS011;708;51.442;7.016;2022-11-20T07:11:33;35.58;;;23.67;;
1428;SDS011;708;51.442;7.016;2022-11-20T07:14:00;36.50;;;23.17;;
1428;SDS011;708;51.442;7.016;2022-11-20T07:16:28;32.72;;;22.45;;
1428;SDS011;708;51.442;7.016;2022-11-20T07:18:55;29.85;;;21.70;;
1428;SDS011;708;51.442;7.016;2022-11-20T07:21:22;29.13;;;22.10;;
1428;SDS011;708;51.442;7.016;2022-11-20T07:23:48;31.50;;;23.15;;
1428;SDS011;708;51.442;7.016;2022-11-20T07:26:15;29.33;;;21.25;;
1428;SDS011;708;51.442;7.016;2022-11-20T07:28:43;33.72;;;21.70;;
1428;SDS011;708;51.442;7.016;2022-11-20T07:31:11;31.20;;;20.42;;
1428;SDS011;708;51.442;7.016;2022-11-20T07:33:39;35.45;;;21.23;;
1428;SDS011;708;51.442;7.016;2022-11-20T07:36:06;31.33;;;21.63;;
1428;SDS011;708;51.442;7.016;2022-11-20T07:38:33;28.80;;;21.98;;
1428;SDS011;708;51.442;7.016;2022-11-20T07:41:00;29.65;;;21.95;;
1428;SDS011;708;51.442;7.016;2022-11-20T07:43:30;29.60;;;21.92;;
1428;SDS011;708;51.442;7.016;2022-11-20T07:45:58;31.13;;;22.88;;
1428;SDS011;708;51.442;7.016;2022-11-20T07:48:28;35.88;;;23.60;;
1428;SDS011;708;51.442;7.016;2022-11-20T07:50:56;25.38;;;20.42;;
1428;SDS011;708;51.442;7.016;2022-11-20T07:53:26;29.33;;;22.30;;
1428;SDS011;708;51.442;7.016;2022-11-20T07:55:58;33.05;;;21.52;;
1428;SDS011;708;51.442;7.016;2022-11-20T07:58:25;32.67;;;23.27;;
1428;SDS011;708;51.442;7.016;2022-11-20T08:01:01;30.65;;;22.90;;
1428;SDS011;708;51.442;7.016;2022-11-20T08:03:38;33.22;;;23.58;;
1428;SDS011;708;51.442;7.016;2022-11-20T08:06:08;31.13;;;22.58;;
1428;SDS011;708;51.442;7.016;2022-11-20T08:08:35;29.88;;;22.80;;
1428;SDS011;708;51.442;7.016;2022-11-20T08:11:07;34.38;;;24.52;;
1428;SDS011;708;51.442;7.016;2022-11-20T08:13:51;70.57;;;44.63;;
1428;SDS011;708;51.442;7.016;2022-11-20T08:16:35;34.15;;;23.38;;
1428;SDS011;708;51.442;7.016;2022-11-20T08:19:02;28.33;;;22.77;;
1428;SDS011;708;51.442;7.016;2022-11-20T08:21:37;27.65;;;21.25;;
1428;SDS011;708;51.442;7.016;2022-11-20T08:24:04;31.02;;;21.35;;
1428;SDS011;708;51.442;7.016;2022-11-20T08:26:32;27.83;;;20.92;;
1428;SDS011;708;51.442;7.016;2022-11-20T08:28:59;23.58;;;18.33;;
1428;SDS011;708;51.442;7.016;2022-11-20T08:31:28;24.10;;;19.00;;
1428;SDS011;708;51.442;7.016;2022-11-20T08:33:55;27.88;;;20.08;;
1428;SDS011;708;51.442;7.016;2022-11-20T08:36:23;23.70;;;18.92;;
1428;SDS011;708;51.442;7.016;2022-11-20T08:38:51;24.48;;;19.38;;
1428;SDS011;708;51.442;7.016;2022-11-20T08:41:20;25.42;;;19.25;;
1428;SDS011;708;51.442;7.016;2022-11-20T08:43:51;26.48;;;19.58;;
1428;SDS011;708;51.442;7.016;2022-11-20T08:46:20;25.75;;;20.27;;
1428;SDS011;708;51.442;7.016;2022-11-20T08:48:47;22.75;;;17.88;;
1428;SDS011;708;51.442;7.016;2022-11-20T08:51:14;23.23;;;18.70;;
1428;SDS011;708;51.442;7.016;2022-11-20T08:53:44;23.15;;;18.90;;
1428;SDS011;708;51.442;7.016;2022-11-20T08:56:14;24.60;;;19.38;;
1428;SDS011;708;51.442;7.016;2022-11-20T08:58:42;24.30;;;19.05;;
1428;SDS011;708;51.442;7.016;2022-11-20T09:01:10;27.38;;;20.63;;
1428;SDS011;708;51.442;7.016;2022-11-20T09:03:37;26.42;;;19.02;;
1428;SDS011;708;51.442;7.016;2022-11-20T09:06:04;23.42;;;19.35;;
1428;SDS011;708;51.442;7.016;2022-11-20T09:08:33;22.88;;;18.08;;
1428;SDS011;708;51.442;7.016;2022-11-20T09:11:01;19.17;;;16.50;;
1428;SDS011;708;51.442;7.016;2022-11-20T09:13:30;28.90;;;23.98;;
1428;SDS011;708;51.442;7.016;2022-11-20T09:16:00;22.25;;;16.55;;
1428;SDS011;708;51.442;7.016;2022-11-20T09:18:28;19.58;;;14.40;;
1428;SDS011;708;51.442;7.016;2022-11-20T09:20:57;15.10;;;11.32;;
1428;SDS011;708;51.442;7.016;2022-11-20T09:23:24;16.63;;;12.05;;
1428;SDS011;708;51.442;7.016;2022-11-20T09:25:52;14.23;;;10.45;;
1428;SDS011;708;51.442;7.016;2022-11-20T09:28:20;12.23;;;8.77;;
1428;SDS011;708;51.442;7.016;2022-11-20T09:30:48;13.23;;;10.23;;
1428;SDS011;708;51.442;7.016;2022-11-20T09:33:15;11.68;;;9.60;;
1428;SDS011;708;51.442;7.016;2022-11-20T09:35:54;13.48;;;10.00;;
1428;SDS011;708;51.442;7.016;2022-11-20T09:38:58;16.35;;;11.82;;
1428;SDS011;708;51.442;7.016;2022-11-20T09:41:30;14.00;;;10.45;;
1428;SDS011;708;51.442;7.016;2022-11-20T09:44:16;17.20;;;11.15;;
1428;SDS011;708;51.442;7.016;2022-11-20T09:46:55;15.00;;;11.50;;
1428;SDS011;708;51.442;7.016;2022-11-20T09:49:32;15.10;;;11.80;;
1428;SDS011;708;51.442;7.016;2022-11-20T09:52:14;12.90;;;10.82;;
1428;SDS011;708;51.442;7.016;2022-11-20T09:54:48;15.48;;;11.50;;
1428;SDS011;708;51.442;7.016;2022-11-20T09:57:17;14.40;;;11.75;;
1428;SDS011;708;51.442;7.016;2022-11-20T09:59:49;14.73;;;12.00;;
1428;SDS011;708;51.442;7.016;2022-11-20T10:02:24;18.15;;;12.95;;
1428;SDS011;708;51.442;7.016;2022-11-20T10:04:59;16.48;;;12.88;;
1428;SDS011;708;51.442;7.016;2022-11-20T10:07:35;15.50;;;12.77;;
1428;SDS011;708;51.442;7.016;2022-11-20T10:10:13;18.50;;;14.68;;
1428;SDS011;708;51.442;7.016;2022-11-20T10:12:46;18.83;;;14.65;;
1428;SDS011;708;51.442;7.016;2022-11-20T10:15:26;17.67;;;14.05;;
1428;SDS011;708;51.442;7.016;2022-11-20T10:20:54;15.80;;;12.80;;
1428;SDS011;708;51.442;7.016;2022-11-20T10:23:29;16.58;;;12.70;;
1428;SDS011;708;51.442;7.016;2022-11-20T10:26:14;14.98;;;10.40;;
1428;SDS011;708;51.442;7.016;2022-11-20T10:28:48;14.02;;;10.80;;
1428;SDS011;708;51.442;7.016;2022-11-20T10:31:27;16.05;;;12.32;;
1428;SDS011;708;51.442;7.016;2022-11-20T10:34:00;15.38;;;11.40;;
1428;SDS011;708;51.442;7.016;2022-11-20T10:36:33;14.77;;;11.18;;
1428;SDS011;708;51.442;7.016;2022-11-20T10:39:05;13.73;;;10.85;;
1428;SDS011;708;51.442;7.016;2022-11-20T10:41:44;14.93;;;10.20;;
1428;SDS011;708;51.442;7.016;2022-11-20T10:44:17;12.57;;;10.05;;
1428;SDS011;708;51.442;7.016;2022-11-20T10:47:00;14.45;;;11.45;;
1428;SDS011;708;51.442;7.016;2022-11-20T10:49:29;13.20;;;10.40;;
1428;SDS011;708;51.442;7.016;2022-11-20T10:52:00;12.00;;;9.77;;
1428;SDS011;708;51.442;7.016;2022-11-20T10:54:36;19.00;;;14.63;;
1428;SDS011;708;51.442;7.016;2022-11-20T10:57:13;15.82;;;11.57;;
1428;SDS011;708;51.442;7.016;2022-11-20T11:00:03;16.95;;;12.13;;
1428;SDS011;708;51.442;7.016;2022-11-20T11:02:33;17.50;;;13.00;;
1428;SDS011;708;51.442;7.016;2022-11-20T11:05:10;18.58;;;15.07;;
1428;SDS011;708;51.442;7.016;2022-11-20T11:07:44;17.55;;;12.10;;
1428;SDS011;708;51.442;7.016;2022-11-20T11:10:14;14.85;;;10.80;;
1428;SDS011;708;51.442;7.016;2022-11-20T11:12:44;13.43;;;11.38;;
1428;SDS011;708;51.442;7.016;2022-11-20T11:15:14;14.60;;;11.15;;
1428;SDS011;708;51.442;7.016;2022-11-20T11:17:51;17.05;;;12.50;;
1428;SDS011;708;51.442;7.016;2022-11-20T11:20:20;13.85;;;11.80;;
1428;SDS011;708;51.442;7.016;2022-11-20T11:22:48;17.70;;;13.13;;
1428;SDS011;708;51.442;7.016;2022-11-20T11:25:20;14.38;;;12.07;;
1428;SDS011;708;51.442;7.016;2022-11-20T11:27:53;15.07;;;11.57;;
1428;SDS011;708;51.442;7.016;2022-11-20T11:30:22;14.88;;;12.27;;
1428;SDS011;708;51.442;7.016;2022-11-20T11:32:50;16.65;;;11.80;;
1428;SDS011;708;51.442;7.016;2022-11-20T11:35:27;16.67;;;12.90;;
1428;SDS011;708;51.442;7.016;2022-11-20T11:38:02;14.95;;;12.07;;
1428;SDS011;708;51.442;7.016;2022-11-20T11:40:31;16.33;;;12.52;;
1428;SDS011;708;51.442;7.016;2022-11-20T11:43:01;18.60;;;13.45;;
1428;SDS011;708;51.442;7.016;2022-11-20T11:45:51;16.85;;;12.13;;
1428;SDS011;708;51.442;7.016;2022-11-20T11:48:18;15.52;;;11.43;;
1428;SDS011;708;51.442;7.016;2022-11-20T11:50:49;16.58;;;11.10;;
1428;SDS011;708;51.442;7.016;2022-11-20T11:53:17;16.00;;;11.13;;
1428;SDS011;708;51.442;7.016;2022-11-20T11:55:47;14.88;;;11.27;;
1428;SDS011;708;51.442;7.016;2022-11-20T11:58:20;16.73;;;13.10;;
1428;SDS011;708;51.442;7.016;2022-11-20T12:01:01;18.50;;;13.57;;
1428;SDS011;708;51.442;7.016;2022-11-20T12:03:34;18.48;;;12.60;;
1428;SDS011;708;51.442;7.016;2022-11-20T12:06:06;18.05;;;12.70;;
1428;SDS011;708;51.442;7.016;2022-11-20T12:08:39;18.83;;;13.07;;
1428;SDS011;708;51.442;7.016;2022-11-20T12:11:11;17.33;;;12.38;;
1428;SDS011;708;51.442;7.016;2022-11-20T12:13:44;22.90;;;13.43;;
1428;SDS011;708;51.442;7.016;2022-11-20T12:16:17;18.35;;;13.90;;
1428;SDS011;708;51.442;7.016;2022-11-20T12:18:45;19.77;;;14.13;;
1428;SDS011;708;51.442;7.016;2022-11-20T12:21:19;18.83;;;13.95;;
1428;SDS011;708;51.442;7.016;2022-11-20T12:26:43;19.20;;;13.85;;
1428;SDS011;708;51.442;7.016;2022-11-20T12:29:21;18.58;;;13.10;;
1428;SDS011;708;51.442;7.016;2022-11-20T12:32:04;20.67;;;13.52;;
1428;SDS011;708;51.442;7.016;2022-11-20T12:34:52;19.63;;;13.95;;
1428;SDS011;708;51.442;7.016;2022-11-20T12:37:31;18.75;;;13.27;;
1428;SDS011;708;51.442;7.016;2022-11-20T12:40:13;19.02;;;13.85;;
1428;SDS011;708;51.442;7.016;2022-11-20T12:42:55;21.48;;;14.32;;
1428;SDS011;708;51.442;7.016;2022-11-20T12:45:54;19.30;;;13.63;;
1428;SDS011;708;51.442;7.016;2022-11-20T12:48:38;19.98;;;15.80;;
1428;SDS011;708;51.442;7.016;2022-11-20T12:51:15;20.58;;;14.48;;
1428;SDS011;708;51.442;7.016;2022-11-20T12:54:00;22.55;;;15.57;;
1428;SDS011;708;51.442;7.016;2022-11-20T12:56:56;19.13;;;14.13;;
1428;SDS011;708;51.442;7.016;2022-11-20T12:59:34;19.77;;;14.02;;
1428;SDS011;708;51.442;7.016;2022-11-20T13:02:18;20.58;;;14.18;;
1428;SDS011;708;51.442;7.016;2022-11-20T13:04:56;33.90;;;15.50;;
1428;SDS011;708;51.442;7.016;2022-11-20T13:07:38;24.90;;;14.45;;
1428;SDS011;708;51.442;7.016;2022-11-20T13:10:10;22.30;;;15.85;;
1428;SDS011;708;51.442;7.016;2022-11-20T13:12:45;21.20;;;15.52;;
1428;SDS011;708;51.442;7.016;2022-11-20T13:15:18;22.75;;;17.80;;
1428;SDS011;708;51.442;7.016;2022-11-20T13:17:58;20.58;;;14.60;;
1428;SDS011;708;51.442;7.016;2022-11-20T13:20:27;21.65;;;14.90;;
1428;SDS011;708;51.442;7.016;2022-11-20T13:22:54;22.23;;;14.95;;
1428;SDS011;708;51.442;7.016;2022-11-20T13:25:24;21.85;;;13.10;;
1428;SDS011;708;51.442;7.016;2022-11-20T13:27:52;20.95;;;14.75;;
1428;SDS011;708;51.442;7.016;2022-11-20T13:30:20;24.45;;;16.88;;
1428;SDS011;708;51.442;7.016;2022-11-20T13:32:48;21.17;;;14.93;;
1428;SDS011;708;51.442;7.016;2022-11-20T13:35:24;25.98;;;17.50;;
1428;SDS011;708;51.442;7.016;2022-11-20T13:37:59;20.00;;;14.77;;
1428;SDS011;708;51.442;7.016;2022-11-20T13:40:29;24.38;;;16.77;;
1428;SDS011;708;51.442;7.016;2022-11-20T13:43:01;21.73;;;15.75;;
1428;SDS011;708;51.442;7.016;2022-11-20T13:45:41;19.38;;;16.30;;
1428;SDS011;708;51.442;7.016;2022-11-20T13:48:18;22.98;;;17.00;;
1428;SDS011;708;51.442;7.016;2022-11-20T13:50:51;24.35;;;17.05;;
1428;SDS011;708;51.442;7.016;2022-11-20T13:53:28;22.27;;;15.88;;
1428;SDS011;708;51.442;7.016;2022-11-20T13:56:07;25.42;;;18.38;;
1428;SDS011;708;51.442;7.016;2022-11-20T13:58:44;21.35;;;16.85;;
1428;SDS011;708;51.442;7.016;2022-11-20T14:01:19;26.08;;;18.17;;
1428;SDS011;708;51.442;7.016;2022-11-20T14:03:48;22.33;;;17.45;;
1428;SDS011;708;51.442;7.016;2022-11-20T14:06:19;33.40;;;21.48;;
1428;SDS011;708;51.442;7.016;2022-11-20T14:08:52;21.63;;;15.98;;
1428;SDS011;708;51.442;7.016;2022-11-20T14:11:21;26.25;;;18.48;;
1428;SDS011;708;51.442;7.016;2022-11-20T14:13:56;28.35;;;18.40;;
1428;SDS011;708;51.442;7.016;2022-11-20T14:16:26;25.40;;;17.65;;
1428;SDS011;708;51.442;7.016;2022-11-20T14:18:54;26.75;;;20.10;;
1428;SDS011;708;51.442;7.016;2022-11-20T14:21:22;22.90;;;17.88;;
1428;SDS011;708;51.442;7.016;2022-11-20T14:23:52;24.65;;;17.90;;
1428;SDS011;708;51.442;7.016;2022-11-20T14:26:22;24.45;;;18.35;;
1428;SDS011;708;51.442;7.016;2022-11-20T14:28:53;26.70;;;19.33;;
1428;SDS011;708;51.442;7.016;2022-11-20T14:31:22;25.75;;;20.10;;
1428;SDS011;708;51.442;7.016;2022-11-20T14:33:51;28.10;;;19.58;;
1428;SDS011;708;51.442;7.016;2022-11-20T14:36:19;37.38;;;25.25;;
1428;SDS011;708;51.442;7.016;2022-11-20T14:38:48;29.48;;;19.67;;
1428;SDS011;708;51.442;7.016;2022-11-20T14:41:17;26.90;;;20.13;;
1428;SDS011;708;51.442;7.016;2022-11-20T14:43:47;29.70;;;20.63;;
1428;SDS011;708;51.442;7.016;2022-11-20T14:46:21;33.33;;;25.25;;
1428;SDS011;708;51.442;7.016;2022-11-20T14:48:49;32.22;;;22.80;;
1428;SDS011;708;51.442;7.016;2022-11-20T14:51:26;28.10;;;19.13;;
1428;SDS011;708;51.442;7.016;2022-11-20T14:53:55;32.58;;;21.88;;
1428;SDS011;708;51.442;7.016;2022-11-20T14:56:33;26.38;;;17.75;;
1428;SDS011;708;51.442;7.016;2022-11-20T14:59:01;33.72;;;21.27;;
1428;SDS011;708;51.442;7.016;2022-11-20T15:01:29;26.67;;;19.17;;
1428;SDS011;708;51.442;7.016;2022-11-20T15:03:59;31.10;;;20.92;;
1428;SDS011;708;51.442;7.016;2022-11-20T15:06:27;29.20;;;20.30;;
1428;SDS011;708;51.442;7.016;2022-11-20T15:08:56;25.25;;;18.08;;
1428;SDS011;708;51.442;7.016;2022-11-20T15:11:25;30.50;;;20.83;;
1428;SDS011;708;51.442;7.016;2022-11-20T15:13:55;28.33;;;17.77;;
1428;SDS011;708;51.442;7.016;2022-11-20T15:16:24;33.83;;;21.25;;
1428;SDS011;708;51.442;7.016;2022-11-20T15:18:52;33.38;;;19.40;;
1428;SDS011;708;51.442;7.016;2022-11-20T15:21:20;24.70;;;17.70;;
1428;SDS011;708;51.442;7.016;2022-11-20T15:23:46;31.35;;;20.52;;
1428;SDS011;708;51.442;7.016;2022-11-20T15:26:14;28.30;;;21.73;;